PBI Airport (Palm Beach Intl) Information

FAA: PBI - ICAO: KPBI

PBI Airport Location

State Florida
County Palm Beach
City West Palm Beach
PBI Airport is 3 miles west of West Palm Beach, FL.
Latitude 26-40-59.3820N
Longitude 080-05-44.1310W
Elevation 19ft

KPBI Airport METARs

METAR KPBI 302153Z 09006KT 10SM SCT041 25/20 A2977 RMK AO2 SLP079 T02500200
Altimeter 29.77"
Temperature 25.0°C (77.0°F)
Wind 90° at 6KT
Clouds scattered at 4,100ft
Visibility 10.0mi
Time observed: 2022-09-30T21:53:00Z

PBI Airport Details

Status Operational
Activation April 1940
Ownership Public
Usage Public
Chart MIAMI
ATC on-site Yes
Beacon schedule sunset-sunrise
Beacon color clear green

PBI Airport Contacts

Owner PALM BEACH COUNTY
Owner address 846 PALM BEACH INTL AIRPORT, WEST PALM BEACH, FL 33406
Owner phone 561-471-7420
Manager NORMAN EPPS, DIRECTOR
Manager address 3100 WESTON ROAD, WESTON, FL 33331
Manager phone (954) 689-5027

PBI Airport (Palm Beach Intl) Radio Frequencies

PBI (Airport) Radio Frequencies

UNICOM 122.95
Common traffic advisory frequency (CTAF) N/A